createdAt,value
2023-01-02T00:02:12.545Z,1.05
2023-01-02T00:04:39.832Z,1.58
2023-01-02T00:07:07.112Z,1.30
2023-01-02T00:09:34.324Z,1.02
2023-01-02T00:12:01.554Z,1.63
2023-01-02T00:14:28.802Z,1.10
2023-01-02T00:16:56.063Z,0.90
2023-01-02T00:19:23.306Z,1.33
2023-01-02T00:21:50.778Z,1.38
2023-01-02T00:24:18.010Z,1.20
2023-01-02T00:26:45.257Z,1.05
2023-01-02T00:29:12.517Z,1.55
2023-01-02T00:31:39.770Z,1.40
2023-01-02T00:34:07.073Z,1.73
2023-01-02T00:36:34.316Z,1.25
2023-01-02T00:39:01.520Z,1.30
2023-01-02T00:41:28.812Z,1.50
2023-01-02T00:43:56.023Z,1.30
2023-01-02T00:46:23.383Z,1.20
2023-01-02T00:48:50.733Z,1.50
2023-01-02T00:51:17.966Z,0.93
2023-01-02T00:53:45.157Z,1.38
2023-01-02T00:56:12.411Z,1.20
2023-01-02T00:58:40.237Z,1.27
2023-01-02T01:01:09.200Z,1.25
2023-01-02T01:03:36.439Z,1.27
2023-01-02T01:06:07.950Z,1.30
2023-01-02T01:08:36.178Z,1.10
2023-01-02T01:11:07.294Z,1.02
2023-01-02T01:13:34.556Z,1.10
2023-01-02T01:16:05.867Z,1.48
2023-01-02T01:18:33.128Z,1.40
2023-01-02T01:21:00.354Z,1.35
2023-01-02T01:23:27.555Z,1.10
2023-01-02T01:25:54.791Z,1.70
2023-01-02T01:28:22.005Z,1.50
2023-01-02T01:30:49.241Z,1.45
2023-01-02T01:33:16.587Z,1.00
2023-01-02T01:35:43.835Z,1.02
2023-01-02T01:38:11.043Z,1.23
2023-01-02T01:40:39.218Z,1.30
2023-01-02T01:43:13.795Z,1.00
2023-01-02T01:45:42.552Z,1.40
2023-01-02T01:48:13.202Z,1.17
2023-01-02T01:50:40.552Z,1.10
2023-01-02T01:53:10.383Z,1.02
2023-01-02T01:55:39.619Z,2.33
2023-01-02T01:58:08.803Z,1.20
2023-01-02T02:00:36.197Z,1.10
2023-01-02T02:03:09.523Z,1.08
2023-01-02T02:05:37.176Z,0.90
2023-01-02T02:08:18.863Z,1.00
2023-01-02T02:10:46.732Z,1.40
2023-01-02T02:13:14.060Z,1.02
2023-01-02T02:15:44.347Z,1.70
2023-01-02T02:18:17.004Z,1.00
2023-01-02T02:20:51.629Z,1.40
2023-01-02T02:23:18.838Z,1.00
2023-01-02T02:26:01.649Z,1.35
2023-01-02T02:28:31.775Z,1.10
2023-01-02T02:31:04.860Z,1.00
2023-01-02T02:33:32.163Z,1.00
2023-01-02T02:36:04.313Z,0.95
2023-01-02T02:38:54.344Z,1.27
2023-01-02T02:41:21.553Z,1.25
2023-01-02T02:43:57.624Z,1.40
2023-01-02T02:46:30.652Z,1.83
2023-01-02T02:48:57.850Z,1.30
2023-01-02T02:51:25.089Z,1.30
2023-01-02T02:53:55.758Z,1.70
2023-01-02T02:56:24.189Z,1.48
2023-01-02T02:58:51.565Z,1.40
2023-01-02T03:01:19.893Z,1.30
2023-01-02T03:03:47.240Z,1.85
2023-01-02T03:06:17.282Z,1.83
2023-01-02T03:08:56.676Z,1.10
2023-01-02T03:11:27.913Z,1.08
2023-01-02T03:14:02.305Z,2.00
2023-01-02T03:16:38.553Z,1.52
2023-01-02T03:19:15.574Z,1.75
2023-01-02T03:21:46.795Z,0.98
2023-01-02T03:24:15.644Z,1.38
2023-01-02T03:26:44.680Z,1.65
2023-01-02T03:29:16.255Z,1.08
2023-01-02T03:31:45.264Z,1.13
2023-01-02T03:34:14.789Z,1.50
2023-01-02T03:36:43.841Z,1.15
2023-01-02T03:39:13.591Z,1.50
2023-01-02T03:41:49.749Z,1.00
2023-01-02T03:44:17.828Z,1.23
2023-01-02T03:46:49.586Z,1.02
2023-01-02T03:49:24.197Z,1.40
2023-01-02T03:51:51.821Z,1.27
2023-01-02T03:54:19.530Z,1.20
2023-01-02T03:56:49.768Z,1.10
2023-01-02T03:59:37.223Z,1.15
2023-01-02T04:02:23.303Z,1.50
2023-01-02T04:04:59.482Z,1.02
2023-01-02T04:07:32.399Z,1.80
2023-01-02T04:10:00.342Z,1.30
2023-01-02T04:12:28.862Z,1.20
2023-01-02T04:15:15.664Z,1.20
2023-01-02T04:17:46.541Z,1.67
2023-01-02T04:20:26.811Z,1.50
2023-01-02T04:22:56.032Z,1.85
2023-01-02T04:25:25.487Z,1.33
2023-01-02T04:28:05.099Z,1.20
2023-01-02T04:30:36.005Z,1.50
2023-01-02T04:33:06.785Z,1.92
2023-01-02T04:35:35.762Z,1.30
2023-01-02T04:38:09.984Z,1.30
2023-01-02T04:40:38.159Z,1.33
2023-01-02T04:43:08.523Z,1.90
2023-01-02T04:45:35.884Z,1.45
2023-01-02T04:48:03.110Z,1.10
2023-01-02T04:50:30.319Z,1.35
2023-01-02T04:52:57.601Z,1.35
2023-01-02T04:55:24.833Z,1.15
2023-01-02T04:57:52.052Z,1.17
2023-01-02T05:00:19.269Z,1.23
2023-01-02T05:02:46.592Z,1.00
2023-01-02T05:05:13.925Z,1.40
2023-01-02T05:07:41.137Z,1.05
2023-01-02T05:10:08.861Z,1.40
2023-01-02T05:12:36.737Z,1.48
2023-01-02T05:15:08.423Z,1.30
2023-01-02T05:17:36.590Z,1.60
2023-01-02T05:20:04.520Z,1.10
2023-01-02T05:22:50.295Z,0.93
2023-01-02T05:25:17.628Z,1.38
2023-01-02T05:27:45.837Z,1.00
2023-01-02T05:30:13.099Z,1.15
2023-01-02T05:32:40.314Z,1.10
2023-01-02T05:35:07.694Z,1.50
2023-01-02T05:37:34.960Z,1.60
2023-01-02T05:40:02.188Z,1.00
2023-01-02T05:42:29.413Z,1.50
2023-01-02T05:44:56.686Z,1.98
2023-01-02T05:47:24.032Z,0.85
2023-01-02T05:49:51.319Z,1.67
2023-01-02T05:52:18.558Z,1.48
2023-01-02T05:54:45.790Z,1.08
2023-01-02T05:57:13.103Z,1.10
2023-01-02T05:59:40.356Z,0.93
2023-01-02T06:02:07.707Z,1.17
2023-01-02T06:04:34.981Z,1.25
2023-01-02T06:07:02.168Z,1.35
2023-01-02T06:09:29.387Z,1.20
2023-01-02T06:11:56.663Z,1.10
2023-01-02T06:14:25.102Z,1.40
2023-01-02T06:16:52.356Z,1.13
2023-01-02T06:19:19.589Z,1.30
2023-01-02T06:21:46.767Z,0.80
2023-01-02T06:24:13.991Z,1.45
2023-01-02T06:26:41.251Z,1.30
2023-01-02T06:29:09.548Z,0.95
2023-01-02T06:31:39.747Z,1.40
2023-01-02T06:34:07.299Z,0.95
2023-01-02T06:36:35.079Z,1.20
2023-01-02T06:39:02.795Z,1.52
2023-01-02T06:41:30.047Z,1.17
2023-01-02T06:43:57.280Z,1.27
2023-01-02T06:46:25.144Z,1.25
2023-01-02T06:48:52.388Z,2.30
2023-01-02T06:51:20.880Z,1.20
2023-01-02T06:53:48.318Z,1.27
2023-01-02T06:56:17.177Z,1.20
2023-01-02T06:58:44.470Z,1.85
2023-01-02T07:01:13.116Z,1.35
2023-01-02T07:03:40.596Z,1.33
2023-01-02T07:06:09.178Z,1.17
2023-01-02T07:08:37.032Z,1.95
2023-01-02T07:11:18.010Z,2.25
2023-01-02T07:13:45.929Z,1.40
2023-01-02T07:16:14.931Z,1.48
2023-01-02T07:18:42.181Z,1.30
2023-01-02T07:21:10.077Z,1.38
2023-01-02T07:23:37.313Z,2.03
2023-01-02T07:26:05.542Z,1.77
2023-01-02T07:28:33.479Z,2.92
2023-01-02T07:31:02.745Z,1.85
2023-01-02T07:33:30.374Z,1.17
2023-01-02T07:35:58.892Z,1.48
2023-01-02T07:38:26.259Z,1.20
2023-01-02T07:40:53.484Z,1.27
2023-01-02T07:43:20.947Z,2.28
2023-01-02T07:45:50.530Z,1.20
2023-01-02T07:48:18.354Z,1.27
2023-01-02T07:50:45.698Z,1.27
2023-01-02T07:53:13.007Z,1.30
2023-01-02T07:55:40.320Z,1.20
2023-01-02T07:58:07.624Z,1.30
2023-01-02T08:00:35.150Z,1.48
2023-01-02T08:03:02.823Z,1.60
2023-01-02T08:05:30.059Z,1.33
2023-01-02T08:07:57.290Z,2.10
2023-01-02T08:10:24.545Z,1.20
2023-01-02T08:12:52.389Z,1.25
2023-01-02T08:15:19.640Z,1.05
2023-01-02T08:17:46.876Z,1.15
2023-01-02T08:20:14.131Z,1.40
2023-01-02T08:22:41.442Z,1.30
2023-01-02T08:25:09.199Z,1.30
2023-01-02T08:27:36.584Z,1.17
2023-01-02T08:30:04.284Z,1.02
2023-01-02T08:32:31.570Z,1.50
2023-01-02T08:34:58.753Z,1.65
2023-01-02T08:37:25.964Z,1.77
2023-01-02T08:39:53.148Z,1.50
2023-01-02T08:42:20.524Z,1.80
2023-01-02T08:44:48.278Z,1.70
2023-01-02T08:47:16.068Z,1.23
2023-01-02T08:49:43.464Z,1.30
2023-01-02T08:52:10.756Z,1.30
2023-01-02T08:54:38.128Z,1.20
2023-01-02T08:57:05.368Z,1.90
2023-01-02T08:59:32.620Z,1.10
2023-01-02T09:01:59.989Z,1.42
2023-01-02T09:04:27.354Z,1.52
2023-01-02T09:06:54.627Z,1.35
2023-01-02T09:09:22.184Z,1.25
2023-01-02T09:11:50.972Z,1.20
2023-01-02T09:14:19.915Z,1.70
2023-01-02T09:16:47.563Z,1.40
2023-01-02T09:19:14.877Z,1.45
2023-01-02T09:21:42.191Z,1.50
2023-01-02T09:24:09.795Z,1.80
2023-01-02T09:26:42.487Z,1.50
2023-01-02T09:29:13.280Z,1.30
2023-01-02T09:31:40.794Z,1.30
2023-01-02T09:34:08.358Z,1.98
2023-01-02T09:36:35.611Z,1.80
2023-01-02T09:39:03.557Z,1.45
2023-01-02T09:41:38.872Z,1.63
2023-01-02T09:44:14.582Z,2.17
2023-01-02T09:46:42.218Z,1.75
2023-01-02T09:49:14.286Z,2.28
2023-01-02T09:51:41.686Z,1.60
2023-01-02T09:54:14.956Z,1.90
2023-01-02T09:56:44.506Z,1.50
2023-01-02T09:59:17.738Z,2.17
2023-01-02T10:01:52.293Z,1.48
2023-01-02T10:04:19.790Z,1.67
2023-01-02T10:06:58.500Z,2.05
2023-01-02T10:09:31.666Z,1.50
2023-01-02T10:12:06.964Z,1.90
2023-01-02T10:14:57.486Z,1.40
2023-01-02T10:17:25.560Z,2.00
2023-01-02T10:19:57.170Z,1.65
2023-01-02T10:22:29.511Z,1.30
2023-01-02T10:24:57.179Z,1.52
2023-01-02T10:27:27.857Z,1.90
2023-01-02T10:30:06.681Z,1.77
2023-01-02T10:32:35.498Z,1.45
2023-01-02T10:35:09.576Z,1.90
2023-01-02T10:37:37.111Z,1.77
2023-01-02T10:40:04.841Z,2.05
2023-01-02T10:42:33.247Z,1.65
2023-01-02T10:45:02.012Z,1.60
2023-01-02T10:47:32.660Z,1.45
2023-01-02T10:50:01.104Z,2.15
2023-01-02T10:52:28.683Z,1.48
2023-01-02T10:55:00.135Z,1.50
2023-01-02T10:57:42.194Z,1.40
2023-01-02T11:00:27.381Z,1.30
2023-01-02T11:02:57.384Z,1.65
2023-01-02T11:05:29.096Z,1.90
2023-01-02T11:07:58.647Z,1.65
2023-01-02T11:10:25.898Z,1.70
2023-01-02T11:12:53.923Z,1.42
2023-01-02T11:15:26.192Z,1.77
2023-01-02T11:17:53.770Z,1.30
2023-01-02T11:20:27.095Z,1.75
2023-01-02T11:22:55.846Z,1.80
2023-01-02T11:25:25.070Z,1.77
2023-01-02T11:27:52.693Z,2.33
2023-01-02T11:30:29.160Z,1.80
2023-01-02T11:33:04.119Z,1.90
2023-01-02T11:35:44.875Z,2.05
2023-01-02T11:38:21.671Z,1.60
2023-01-02T11:40:58.848Z,1.73
2023-01-02T11:43:49.520Z,1.70
2023-01-02T11:46:33.364Z,1.80
2023-01-02T11:49:13.454Z,1.95
2023-01-02T11:51:41.503Z,1.90
2023-01-02T11:54:15.850Z,2.33
2023-01-02T11:56:44.886Z,1.65
2023-01-02T11:59:28.482Z,1.80
2023-01-02T12:02:02.371Z,1.75
2023-01-02T12:04:29.489Z,1.85
2023-01-02T12:07:20.380Z,1.85
2023-01-02T12:10:25.641Z,1.85
2023-01-02T12:13:22.952Z,1.92
2023-01-02T12:15:59.795Z,1.80
2023-01-02T12:18:40.103Z,1.50
2023-01-02T12:21:16.036Z,1.45
2023-01-02T12:24:00.945Z,1.80
2023-01-02T12:26:44.495Z,1.77
2023-01-02T12:29:47.883Z,2.20
2023-01-02T12:32:28.938Z,2.38
2023-01-02T12:35:07.999Z,1.73
2023-01-02T12:37:43.300Z,1.40
2023-01-02T12:40:19.035Z,1.50
2023-01-02T12:42:56.244Z,1.92
2023-01-02T12:45:32.377Z,2.35
2023-01-02T12:48:12.701Z,2.00
2023-01-02T12:51:07.026Z,1.85
2023-01-02T12:53:42.965Z,1.92
2023-01-02T12:56:26.119Z,1.50
2023-01-02T12:59:08.161Z,1.33
2023-01-02T13:01:51.543Z,1.67
2023-01-02T13:04:28.484Z,1.88
2023-01-02T13:07:00.467Z,1.67
2023-01-02T13:09:36.047Z,1.88
2023-01-02T13:12:11.999Z,1.77
2023-01-02T13:15:00.726Z,2.30
2023-01-02T13:17:42.946Z,1.70
2023-01-02T13:20:24.451Z,2.20
2023-01-02T13:23:03.426Z,1.70
2023-01-02T13:25:32.553Z,1.40
2023-01-02T13:28:00.478Z,2.15
2023-01-02T13:30:44.830Z,1.95
2023-01-02T13:33:40.356Z,1.85
2023-01-02T13:36:29.161Z,1.75
2023-01-02T13:39:23.505Z,1.90
2023-01-02T13:42:25.552Z,1.73
2023-01-02T13:44:54.901Z,1.65
2023-01-02T13:47:34.054Z,2.58
2023-01-02T13:50:26.805Z,1.95
2023-01-02T13:53:10.469Z,1.90
2023-01-02T13:55:40.022Z,2.42
2023-01-02T13:58:13.196Z,2.35
2023-01-02T14:00:45.034Z,2.28
2023-01-02T14:03:24.516Z,2.20
2023-01-02T14:05:57.777Z,1.95
2023-01-02T14:08:26.090Z,1.60
2023-01-02T14:10:58.164Z,1.60
2023-01-02T14:13:38.939Z,2.10
2023-01-02T14:16:36.225Z,2.50
2023-01-02T14:19:15.425Z,1.70
2023-01-02T14:22:00.749Z,2.03
2023-01-02T14:24:34.215Z,1.88
2023-01-02T14:27:16.633Z,1.77
2023-01-02T14:29:53.487Z,2.30
2023-01-02T14:32:37.713Z,1.73
2023-01-02T14:35:15.700Z,1.77
2023-01-02T14:37:48.161Z,1.83
2023-01-02T14:40:24.724Z,2.03
2023-01-02T14:43:30.859Z,1.83
2023-01-02T14:46:25.491Z,1.58
2023-01-02T14:48:58.473Z,1.00
2023-01-02T14:51:38.303Z,0.93
2023-01-02T14:54:12.211Z,0.40
2023-01-02T14:56:41.709Z,0.38
2023-01-02T14:59:16.571Z,0.32
2023-01-02T15:01:51.846Z,0.52
2023-01-02T15:04:24.858Z,0.40
2023-01-02T15:07:23.272Z,0.30
2023-01-02T15:10:14.748Z,0.50
2023-01-02T15:13:11.616Z,0.47
2023-01-02T15:15:50.869Z,0.60
2023-01-02T15:18:31.226Z,0.57
2023-01-02T15:21:11.064Z,0.70
2023-01-02T15:23:43.428Z,0.60
2023-01-02T15:26:32.986Z,0.50
2023-01-02T15:29:04.177Z,0.47
2023-01-02T15:31:31.480Z,0.40
2023-01-02T15:34:00.118Z,0.70
2023-01-02T15:36:40.530Z,0.50
2023-01-02T15:39:19.258Z,0.73
2023-01-02T15:41:52.911Z,0.60
2023-01-02T15:44:45.502Z,0.60
2023-01-02T15:47:13.128Z,0.50
2023-01-02T15:49:43.182Z,0.40
2023-01-02T15:52:26.501Z,0.38
2023-01-02T15:54:54.410Z,0.40
2023-01-02T15:57:27.743Z,0.20
2023-01-02T15:59:55.434Z,0.40
2023-01-02T16:02:43.819Z,0.40
2023-01-02T16:05:19.318Z,0.40
2023-01-02T16:07:52.820Z,0.40
2023-01-02T16:10:22.779Z,0.38
2023-01-02T16:13:25.710Z,0.30
2023-01-02T16:16:16.102Z,0.50
2023-01-02T16:18:45.880Z,0.30
2023-01-02T16:21:14.847Z,0.38
2023-01-02T16:23:49.823Z,0.30
2023-01-02T16:26:18.841Z,0.40
2023-01-02T16:28:45.964Z,0.40
2023-01-02T16:31:15.793Z,0.32
2023-01-02T16:33:43.935Z,0.40
2023-01-02T16:36:24.630Z,0.25
2023-01-02T16:38:56.080Z,0.30
2023-01-02T16:41:36.704Z,0.30
2023-01-02T16:44:05.456Z,0.30
2023-01-02T16:46:32.220Z,0.20
2023-01-02T16:49:04.907Z,0.10
2023-01-02T16:51:32.703Z,0.60
2023-01-02T16:53:59.726Z,0.60
2023-01-02T16:56:26.503Z,0.40
2023-01-02T16:58:53.319Z,0.50
2023-01-02T17:01:22.765Z,0.38
2023-01-02T17:03:49.691Z,0.47
2023-01-02T17:06:18.764Z,0.55
2023-01-02T17:08:45.926Z,0.55
2023-01-02T17:11:16.729Z,0.40
2023-01-02T17:13:43.520Z,0.47
2023-01-02T17:16:10.666Z,0.30
2023-01-02T17:18:37.452Z,0.30
2023-01-02T17:21:04.752Z,0.50
2023-01-02T17:23:32.339Z,0.43
2023-01-02T17:25:59.164Z,0.40
2023-01-02T17:28:27.605Z,0.40
2023-01-02T17:30:54.591Z,0.35
2023-01-02T17:33:22.112Z,0.30
2023-01-02T17:35:50.868Z,0.30
2023-01-02T17:38:18.073Z,0.40
2023-01-02T17:40:45.100Z,0.45
2023-01-02T17:43:11.969Z,0.50
2023-01-02T17:45:40.564Z,0.40
2023-01-02T17:48:11.930Z,0.40
2023-01-02T17:50:40.558Z,0.40
2023-01-02T17:53:08.063Z,0.57
2023-01-02T17:55:35.260Z,0.47
2023-01-02T17:58:02.937Z,0.50
2023-01-02T18:00:29.760Z,0.47
2023-01-02T18:02:56.600Z,0.43
2023-01-02T18:05:23.442Z,0.40
2023-01-02T18:07:50.377Z,0.50
2023-01-02T18:10:20.578Z,0.68
2023-01-02T18:12:49.600Z,0.40
2023-01-02T18:15:19.636Z,0.50
2023-01-02T18:17:46.713Z,0.45
2023-01-02T18:20:19.248Z,0.40
2023-01-02T18:22:50.065Z,0.40
2023-01-02T18:25:27.324Z,0.30
2023-01-02T18:28:16.347Z,0.35
2023-01-02T18:30:43.348Z,0.20
2023-01-02T18:33:18.629Z,0.47
2023-01-02T18:35:57.885Z,0.30
2023-01-02T18:38:32.629Z,0.60
2023-01-02T18:40:59.542Z,0.45
2023-01-02T18:43:35.621Z,0.40
2023-01-02T18:46:15.531Z,0.40
2023-01-02T18:48:42.632Z,0.30
2023-01-02T18:51:24.185Z,0.50
2023-01-02T18:53:57.090Z,0.30
2023-01-02T18:56:26.661Z,0.30
2023-01-02T18:59:22.424Z,0.40
2023-01-02T19:01:52.481Z,0.40
2023-01-02T19:04:28.360Z,0.30
2023-01-02T19:06:59.688Z,0.30
2023-01-02T19:09:36.441Z,0.30
2023-01-02T19:12:34.134Z,0.32
2023-01-02T19:15:21.978Z,0.55
2023-01-02T19:17:49.302Z,0.40
2023-01-02T19:20:16.880Z,0.52
2023-01-02T19:22:44.238Z,0.30
2023-01-02T19:25:19.801Z,0.30
2023-01-02T19:27:46.640Z,0.32
2023-01-02T19:30:30.785Z,0.40
2023-01-02T19:32:58.973Z,0.43
2023-01-02T19:35:25.698Z,0.50
2023-01-02T19:37:53.096Z,0.60
2023-01-02T19:40:22.742Z,0.40
2023-01-02T19:42:51.389Z,0.40
2023-01-02T19:45:21.209Z,0.60
2023-01-02T19:47:49.567Z,0.50
2023-01-02T19:50:21.796Z,0.40
2023-01-02T19:52:49.554Z,0.47
2023-01-02T19:55:18.149Z,0.40
2023-01-02T19:57:45.818Z,0.70
2023-01-02T20:00:15.098Z,0.50
2023-01-02T20:02:45.441Z,0.50
2023-01-02T20:05:19.211Z,0.55
2023-01-02T20:07:49.101Z,0.60
2023-01-02T20:10:16.365Z,0.43
2023-01-02T20:12:43.274Z,0.52
2023-01-02T20:15:14.939Z,0.40
2023-01-02T20:17:42.476Z,0.32
2023-01-02T20:20:13.314Z,0.40
2023-01-02T20:22:43.544Z,0.40
2023-01-02T20:25:12.774Z,0.70
2023-01-02T20:27:39.816Z,0.47
2023-01-02T20:30:08.792Z,0.40
2023-01-02T20:32:35.873Z,0.50
2023-01-02T20:35:03.197Z,0.60
2023-01-02T20:37:31.122Z,0.77
2023-01-02T20:39:58.121Z,0.40
2023-01-02T20:42:25.081Z,0.50
2023-01-02T20:44:52.002Z,0.57
2023-01-02T20:47:19.733Z,0.50
2023-01-02T20:49:46.455Z,0.40
2023-01-02T20:52:13.660Z,0.50
2023-01-02T20:54:40.670Z,0.60
2023-01-02T20:57:07.579Z,0.60
2023-01-02T20:59:34.389Z,0.40
2023-01-02T21:02:01.836Z,0.40
2023-01-02T21:04:36.219Z,0.40
2023-01-02T21:07:05.102Z,0.50
2023-01-02T21:09:31.946Z,0.80
2023-01-02T21:11:58.799Z,0.40
2023-01-02T21:14:25.741Z,0.40
2023-01-02T21:16:52.702Z,0.40
2023-01-02T21:19:19.472Z,0.60
2023-01-02T21:21:46.458Z,0.70
2023-01-02T21:24:13.317Z,0.73
2023-01-02T21:26:40.127Z,0.50
2023-01-02T21:29:07.042Z,0.70
2023-01-02T21:31:33.919Z,0.43
2023-01-02T21:34:00.857Z,0.40
2023-01-02T21:36:28.236Z,0.30
2023-01-02T21:38:55.575Z,0.30
2023-01-02T21:41:41.126Z,0.30
2023-01-02T21:44:08.034Z,0.30
2023-01-02T21:46:34.874Z,0.20
2023-01-02T21:49:02.190Z,0.30
2023-01-02T21:51:32.779Z,0.50
2023-01-02T21:54:00.210Z,0.30
2023-01-02T21:56:27.338Z,0.30
2023-01-02T21:58:55.117Z,0.20
2023-01-02T22:01:22.157Z,0.30
2023-01-02T22:03:49.192Z,0.22
2023-01-02T22:06:16.682Z,0.30
2023-01-02T22:08:43.486Z,0.30
2023-01-02T22:11:28.855Z,0.28
2023-01-02T22:13:55.600Z,0.30
2023-01-02T22:16:22.526Z,0.30
2023-01-02T22:18:50.776Z,0.28
2023-01-02T22:21:17.746Z,0.30
2023-01-02T22:23:44.593Z,0.43
2023-01-02T22:26:11.514Z,0.50
2023-01-02T22:28:38.413Z,0.40
2023-01-02T22:31:05.347Z,0.60
2023-01-02T22:33:32.213Z,0.45
2023-01-02T22:35:59.048Z,0.45
2023-01-02T22:38:25.821Z,0.63
2023-01-02T22:40:54.237Z,0.57
2023-01-02T22:43:24.601Z,0.52
2023-01-02T22:45:53.995Z,0.60
2023-01-02T22:48:23.865Z,0.57
2023-01-02T22:50:52.989Z,0.60
2023-01-02T22:53:32.048Z,0.47
2023-01-02T22:56:00.822Z,0.60
2023-01-02T22:58:28.238Z,0.50
2023-01-02T23:01:01.277Z,0.52
2023-01-02T23:03:30.702Z,0.40
2023-01-02T23:05:57.955Z,0.57
2023-01-02T23:08:24.917Z,0.50
2023-01-02T23:10:52.008Z,0.50
2023-01-02T23:13:18.867Z,0.50
2023-01-02T23:16:04.546Z,0.40
2023-01-02T23:18:56.221Z,0.40
2023-01-02T23:21:26.349Z,0.50
2023-01-02T23:23:53.466Z,0.40
2023-01-02T23:26:21.135Z,0.40
2023-01-02T23:31:36.870Z,0.20
2023-01-02T23:34:03.861Z,0.20
2023-01-02T23:36:30.702Z,0.30
2023-01-02T23:38:57.587Z,0.40
2023-01-02T23:41:24.380Z,0.50
2023-01-02T23:43:51.637Z,0.50
2023-01-02T23:46:18.841Z,0.50
2023-01-02T23:48:45.818Z,0.52
2023-01-02T23:51:12.848Z,0.40
2023-01-02T23:53:39.632Z,0.60
2023-01-02T23:56:18.966Z,0.55
2023-01-02T23:58:46.862Z,0.68
